Аэропорт: Звартноц. Ереван

ICAO: UDYZ

METAR:
2024-04-22 22:00:00
UDYZ 222200Z 01010KT 9999 NSC 19/01 Q1020 NOSIG
TAF:
2024-04-22 17:00:00
TAF UDYZ 221700Z 2218/2318 04006KT 9999 SCT040 
  TEMPO 2218/2224 VRB20G30KT SCT040CB